createdAt,value
2018-01-10T00:01:42.965Z,79.11
2018-01-10T00:04:12.120Z,78.47
2018-01-10T00:06:38.158Z,78.28
2018-01-10T00:09:04.161Z,78.38
2018-01-10T00:11:30.133Z,78.38
2018-01-10T00:13:56.125Z,78.27
2018-01-10T00:16:23.509Z,78.18
2018-01-10T00:18:49.563Z,78.03
2018-01-10T00:21:19.545Z,78.64
2018-01-10T00:23:45.524Z,79.13
2018-01-10T00:26:12.953Z,79.41
2018-01-10T00:28:38.942Z,79.56
2018-01-10T00:31:07.969Z,79.56
2018-01-10T00:33:33.990Z,79.28
2018-01-10T00:36:02.876Z,77.65
2018-01-10T00:38:28.865Z,77.25
2018-01-10T00:40:58.227Z,76.74
2018-01-10T00:43:24.211Z,77.29
2018-01-10T00:45:50.242Z,77.99
2018-01-10T00:48:16.197Z,78.05
2018-01-10T00:50:42.216Z,78.49
2018-01-10T00:53:08.301Z,77.29
2018-01-10T00:55:34.307Z,76.70
2018-01-10T00:58:03.157Z,76.97
2018-01-10T01:00:29.177Z,76.69
2018-01-10T01:02:59.004Z,77.07
2018-01-10T01:05:25.017Z,77.95
2018-01-10T01:07:52.839Z,78.46
2018-01-10T01:10:18.848Z,79.38
2018-01-10T01:12:48.872Z,79.72
2018-01-10T01:15:14.919Z,80.21
2018-01-10T01:17:42.721Z,80.40
2018-01-10T01:20:08.756Z,80.81
2018-01-10T01:22:34.791Z,80.84
2018-01-10T01:25:00.776Z,81.01
2018-01-10T01:27:26.851Z,81.05
2018-01-10T01:29:53.778Z,80.79
2018-01-10T01:32:19.835Z,81.13
2018-01-10T01:34:48.985Z,81.48
2018-01-10T01:37:15.038Z,81.32
2018-01-10T01:39:43.842Z,81.08
2018-01-10T01:42:09.823Z,81.11
2018-01-10T01:44:37.570Z,80.49
2018-01-10T01:47:03.586Z,80.51
2018-01-10T01:49:32.566Z,80.56
2018-01-10T01:51:58.549Z,80.85
2018-01-10T01:54:27.560Z,80.98
2018-01-10T01:56:53.538Z,80.73
2018-01-10T01:59:19.549Z,81.13
2018-01-10T02:01:45.490Z,81.14
2018-01-10T02:04:11.509Z,80.54
2018-01-10T02:06:39.068Z,80.50
2018-01-10T02:09:05.076Z,80.31
2018-01-10T02:11:34.206Z,79.94
2018-01-10T02:14:00.234Z,80.52
2018-01-10T02:16:28.087Z,80.79
2018-01-10T02:18:54.085Z,80.87
2018-01-10T02:21:23.300Z,81.27
2018-01-10T02:23:49.325Z,81.51
2018-01-10T02:26:17.507Z,81.56
2018-01-10T02:28:43.509Z,80.96
2018-01-10T02:31:12.313Z,81.22
2018-01-10T02:33:38.313Z,81.67
2018-01-10T02:36:04.256Z,81.65
2018-01-10T02:38:30.270Z,82.11
2018-01-10T02:40:56.302Z,82.57
2018-01-10T02:43:25.840Z,83.04
2018-01-10T02:45:51.875Z,83.05
2018-01-10T02:48:19.253Z,82.86
2018-01-10T02:50:45.286Z,82.99
2018-01-10T02:53:14.642Z,82.32
2018-01-10T02:55:40.645Z,82.12
2018-01-10T02:58:09.883Z,82.04
2018-01-10T03:00:35.892Z,81.89
2018-01-10T03:03:05.006Z,81.55
2018-01-10T03:05:30.988Z,81.47
2018-01-10T03:07:58.761Z,81.67
2018-01-10T03:10:24.769Z,81.74
2018-01-10T03:12:50.828Z,81.73
2018-01-10T03:15:16.850Z,82.20
2018-01-10T03:17:42.848Z,82.49
2018-01-10T03:20:10.205Z,82.85
2018-01-10T03:22:36.219Z,83.26
2018-01-10T03:25:04.910Z,83.04
2018-01-10T03:27:30.894Z,83.74
2018-01-10T03:29:58.914Z,84.12
2018-01-10T03:32:24.953Z,84.51
2018-01-10T03:34:54.200Z,84.52
2018-01-10T03:37:20.233Z,84.50
2018-01-10T03:39:49.318Z,84.80
2018-01-10T03:42:15.267Z,84.74
2018-01-10T03:44:43.198Z,84.21
2018-01-10T03:47:09.249Z,84.14
2018-01-10T03:49:35.286Z,83.46
2018-01-10T03:52:01.297Z,83.36
2018-01-10T03:54:27.272Z,83.13
2018-01-10T03:56:56.313Z,82.51
2018-01-10T03:59:22.341Z,82.44
2018-01-10T04:01:49.623Z,82.88
2018-01-10T04:04:15.670Z,82.82
2018-01-10T04:06:44.411Z,83.33
2018-01-10T04:09:10.415Z,83.83
2018-01-10T04:11:39.598Z,84.00
2018-01-10T04:14:05.584Z,83.83
2018-01-10T04:16:35.401Z,83.71
2018-01-10T04:19:01.862Z,83.52
2018-01-10T04:21:28.375Z,83.72
2018-01-10T04:23:54.421Z,84.07
2018-01-10T04:26:20.417Z,83.77
2018-01-10T04:28:46.443Z,83.22
2018-01-10T04:31:12.404Z,83.28
2018-01-10T04:33:40.414Z,83.42
2018-01-10T04:36:06.475Z,83.67
2018-01-10T04:38:36.486Z,83.55
2018-01-10T04:41:02.470Z,83.42
2018-01-10T04:43:30.384Z,83.00
2018-01-10T04:45:56.344Z,82.61
2018-01-10T04:48:25.724Z,82.73
2018-01-10T04:50:51.766Z,82.14
2018-01-10T04:53:19.440Z,82.18
2018-01-10T04:55:45.503Z,81.71
2018-01-10T04:58:15.519Z,81.14
2018-01-10T05:00:41.522Z,80.72
2018-01-10T05:03:07.517Z,80.95
2018-01-10T05:05:33.510Z,81.09
2018-01-10T05:07:59.493Z,81.24
2018-01-10T05:10:25.907Z,81.52
2018-01-10T05:12:51.874Z,81.77
2018-01-10T05:15:21.793Z,81.85
2018-01-10T05:17:47.744Z,81.29
2018-01-10T05:20:14.976Z,81.49
2018-01-10T05:22:40.950Z,80.56
2018-01-10T05:25:10.094Z,80.72
2018-01-10T05:27:36.031Z,80.35
2018-01-10T05:30:05.245Z,80.28
2018-01-10T05:32:31.259Z,80.58
2018-01-10T05:34:59.139Z,80.45
2018-01-10T05:37:25.144Z,80.13
2018-01-10T05:39:51.171Z,79.98
2018-01-10T05:42:17.196Z,79.40
2018-01-10T05:44:43.206Z,79.78
2018-01-10T05:47:12.550Z,79.56
2018-01-10T05:49:38.533Z,79.23
2018-01-10T05:52:06.808Z,79.21
2018-01-10T05:54:32.854Z,79.27
2018-01-10T05:57:00.576Z,79.97
2018-01-10T05:59:26.576Z,80.54
2018-01-10T06:01:56.448Z,81.27
2018-01-10T06:04:22.434Z,81.42
2018-01-10T06:06:50.187Z,81.46
2018-01-10T06:09:16.185Z,81.08
2018-01-10T06:11:44.330Z,80.95
2018-01-10T06:14:10.292Z,81.33
2018-01-10T06:16:36.298Z,81.05
2018-01-10T06:19:02.300Z,81.38
2018-01-10T06:21:28.256Z,81.44
2018-01-10T06:23:56.351Z,81.50
2018-01-10T06:26:22.343Z,81.18
2018-01-10T06:28:52.394Z,81.14
2018-01-10T06:31:18.414Z,81.10
2018-01-10T06:33:45.625Z,80.55
2018-01-10T06:36:11.581Z,80.43
2018-01-10T06:38:40.835Z,81.17
2018-01-10T06:41:06.840Z,81.28
2018-01-10T06:43:34.638Z,81.44
2018-01-10T06:46:00.664Z,81.41
2018-01-10T06:48:29.659Z,80.67
2018-01-10T06:50:55.605Z,81.03
2018-01-10T06:53:21.635Z,80.30
2018-01-10T06:55:47.632Z,79.96
2018-01-10T06:58:13.679Z,79.62
2018-01-10T07:00:41.274Z,79.25
2018-01-10T07:03:07.207Z,79.60
2018-01-10T07:05:36.393Z,79.57
2018-01-10T07:08:02.385Z,79.53
2018-01-10T07:10:32.269Z,79.58
2018-01-10T07:12:58.200Z,79.68
2018-01-10T07:15:27.283Z,80.06
2018-01-10T07:17:53.302Z,80.61
2018-01-10T07:20:21.103Z,80.80
2018-01-10T07:22:47.089Z,80.72
2018-01-10T07:25:16.149Z,80.70
2018-01-10T07:27:42.121Z,80.91
2018-01-10T07:30:08.127Z,80.83
2018-01-10T07:32:34.087Z,80.78
2018-01-10T07:35:00.094Z,80.28
2018-01-10T07:37:26.606Z,79.78
2018-01-10T07:39:52.559Z,79.80
2018-01-10T07:42:22.189Z,79.21
2018-01-10T07:44:48.117Z,79.56
2018-01-10T07:47:15.994Z,79.92
2018-01-10T07:49:42.006Z,79.11
2018-01-10T07:52:11.042Z,79.34
2018-01-10T07:54:37.017Z,79.25
2018-01-10T07:57:06.191Z,79.18
2018-01-10T07:59:32.242Z,78.79
2018-01-10T08:02:00.842Z,77.05
2018-01-10T08:04:26.847Z,75.87
2018-01-10T08:06:52.869Z,74.51
2018-01-10T08:09:18.886Z,75.24
2018-01-10T08:11:44.890Z,73.43
2018-01-10T08:14:12.751Z,71.28
2018-01-10T08:16:38.866Z,70.07
2018-01-10T08:19:08.077Z,70.97
2018-01-10T08:21:34.047Z,71.31
2018-01-10T08:24:01.471Z,71.84
2018-01-10T08:26:27.513Z,72.52
2018-01-10T08:28:56.507Z,72.69
2018-01-10T08:31:22.478Z,73.03
2018-01-10T08:33:51.734Z,72.99
2018-01-10T08:36:17.742Z,73.08
2018-01-10T08:38:45.790Z,71.05
2018-01-10T08:41:11.812Z,70.73
2018-01-10T08:43:37.767Z,70.23
2018-01-10T08:46:03.779Z,68.68
2018-01-10T08:48:29.746Z,66.10
2018-01-10T08:50:57.462Z,65.07
2018-01-10T08:53:23.432Z,61.66
2018-01-10T08:55:52.426Z,57.55
2018-01-10T08:58:18.369Z,54.72
2018-01-10T09:00:47.563Z,52.41
2018-01-10T09:03:13.541Z,52.38
2018-01-10T09:05:41.373Z,50.88
2018-01-10T09:08:07.395Z,50.34
2018-01-10T09:10:36.449Z,48.47
2018-01-10T09:13:02.457Z,46.81
2018-01-10T09:15:32.363Z,44.20
2018-01-10T09:17:58.329Z,43.92
2018-01-10T09:20:24.343Z,43.99
2018-01-10T09:22:50.331Z,45.94
2018-01-10T09:25:16.307Z,44.90
2018-01-10T09:27:43.357Z,44.10
2018-01-10T09:30:09.331Z,43.59
2018-01-10T09:32:37.827Z,41.98
2018-01-10T09:35:03.847Z,42.50
2018-01-10T09:37:32.277Z,42.18
2018-01-10T09:39:58.294Z,40.94
2018-01-10T09:42:27.366Z,39.86
2018-01-10T09:44:53.379Z,40.87
2018-01-10T09:47:21.121Z,41.74
2018-01-10T09:49:47.157Z,43.57
2018-01-10T09:52:17.131Z,47.51
2018-01-10T09:54:43.145Z,50.37
2018-01-10T09:57:09.152Z,51.12
2018-01-10T09:59:35.169Z,50.83
2018-01-10T10:02:01.146Z,49.31
2018-01-10T10:04:28.054Z,46.52
2018-01-10T10:06:54.070Z,43.81
2018-01-10T10:09:23.313Z,43.73
2018-01-10T10:11:49.324Z,42.16
2018-01-10T10:14:18.130Z,44.02
2018-01-10T10:16:44.124Z,47.82
2018-01-10T10:19:13.259Z,49.98
2018-01-10T10:21:39.249Z,47.84
2018-01-10T10:24:08.395Z,45.04
2018-01-10T10:26:34.385Z,44.82
2018-01-10T10:29:01.457Z,46.51
2018-01-10T10:31:27.506Z,47.46
2018-01-10T10:33:53.464Z,44.31
2018-01-10T10:36:19.461Z,43.25
2018-01-10T10:38:45.444Z,41.98
2018-01-10T10:41:13.665Z,41.74
2018-01-10T10:43:39.734Z,41.96
2018-01-10T10:46:08.846Z,42.29
2018-01-10T10:48:36.581Z,45.22
2018-01-10T10:51:02.606Z,44.75
2018-01-10T10:53:28.570Z,43.32
2018-01-10T10:55:58.227Z,43.08
2018-01-10T10:58:24.261Z,43.71
2018-01-10T11:00:52.264Z,46.26
2018-01-10T11:03:18.265Z,47.21
2018-01-10T11:05:48.148Z,48.46
2018-01-10T11:08:14.107Z,50.39
2018-01-10T11:10:40.154Z,51.08
2018-01-10T11:13:06.110Z,49.90
2018-01-10T11:15:32.133Z,48.77
2018-01-10T11:17:58.683Z,49.47
2018-01-10T11:20:24.654Z,48.42
2018-01-10T11:22:53.959Z,48.40
2018-01-10T11:25:19.915Z,49.03
2018-01-10T11:27:48.681Z,49.34
2018-01-10T11:30:14.618Z,48.28
2018-01-10T11:32:42.545Z,48.70
2018-01-10T11:35:08.560Z,49.47
2018-01-10T11:37:37.572Z,50.12
2018-01-10T11:40:03.557Z,50.04
2018-01-10T11:42:32.552Z,51.24
2018-01-10T11:44:58.557Z,50.66
2018-01-10T11:47:24.526Z,51.86
2018-01-10T11:49:50.563Z,53.12
2018-01-10T11:52:16.566Z,51.30
2018-01-10T11:54:44.258Z,49.23
2018-01-10T11:57:10.262Z,48.62
2018-01-10T11:59:40.229Z,49.06
2018-01-10T12:02:06.242Z,48.09
2018-01-10T12:04:33.232Z,48.29
2018-01-10T12:06:59.288Z,50.16
2018-01-10T12:09:28.711Z,51.43
2018-01-10T12:11:54.690Z,52.67
2018-01-10T12:14:23.478Z,53.26
2018-01-10T12:16:49.539Z,54.03
2018-01-10T12:19:18.394Z,54.77
2018-01-10T12:21:44.330Z,55.16
2018-01-10T12:24:10.329Z,54.93
2018-01-10T12:26:36.314Z,54.90
2018-01-10T12:29:02.248Z,54.33
2018-01-10T12:31:29.083Z,53.27
2018-01-10T12:33:55.066Z,53.54
2018-01-10T12:36:24.206Z,55.03
2018-01-10T12:38:50.185Z,54.65
2018-01-10T12:41:20.100Z,53.57
2018-01-10T12:43:46.059Z,52.03
2018-01-10T12:46:15.163Z,52.44
2018-01-10T12:48:41.155Z,54.11
2018-01-10T12:51:09.066Z,54.10
2018-01-10T12:53:35.146Z,55.36
2018-01-10T12:56:02.974Z,55.03
2018-01-10T12:58:28.916Z,55.84
2018-01-10T13:00:54.891Z,55.59
2018-01-10T13:03:20.882Z,56.37
2018-01-10T13:05:46.911Z,54.79
2018-01-10T13:08:14.493Z,53.99
2018-01-10T13:10:40.494Z,52.88
2018-01-10T13:13:09.745Z,52.30
2018-01-10T13:15:35.770Z,52.44
2018-01-10T13:18:05.318Z,52.16
2018-01-10T13:20:31.367Z,53.20
2018-01-10T13:22:59.127Z,54.88
2018-01-10T13:25:25.097Z,55.80
2018-01-10T13:27:54.146Z,56.28
2018-01-10T13:30:20.196Z,57.48
2018-01-10T13:32:48.109Z,57.91
2018-01-10T13:35:14.107Z,58.04
2018-01-10T13:37:40.090Z,58.58
2018-01-10T13:40:06.087Z,59.68
2018-01-10T13:42:32.114Z,59.48
2018-01-10T13:45:01.448Z,59.87
2018-01-10T13:47:27.473Z,60.06
2018-01-10T13:49:54.596Z,60.22
2018-01-10T13:52:20.595Z,59.67
2018-01-10T13:54:50.559Z,60.67
2018-01-10T13:57:16.546Z,60.73
2018-01-10T13:59:44.475Z,59.75
2018-01-10T14:02:10.517Z,59.91
2018-01-10T14:04:38.518Z,60.29
2018-01-10T14:07:04.486Z,60.13
2018-01-10T14:09:33.864Z,60.09
2018-01-10T14:11:59.864Z,59.82
2018-01-10T14:14:25.889Z,60.02
2018-01-10T14:16:51.934Z,59.94
2018-01-10T14:19:17.934Z,59.66
2018-01-10T14:21:45.213Z,59.74
2018-01-10T14:24:11.243Z,59.66
2018-01-10T14:26:41.205Z,59.90
2018-01-10T14:29:07.189Z,60.58
2018-01-10T14:31:34.595Z,60.77
2018-01-10T14:34:00.573Z,60.93
2018-01-10T14:36:30.415Z,61.38
2018-01-10T14:38:56.393Z,61.51
2018-01-10T14:41:25.499Z,62.91
2018-01-10T14:43:51.440Z,62.90
2018-01-10T14:46:20.517Z,64.37
2018-01-10T14:48:46.513Z,64.67
2018-01-10T14:51:13.747Z,63.56
2018-01-10T14:53:39.805Z,64.25
2018-01-10T14:56:05.793Z,64.68
2018-01-10T14:58:31.799Z,65.06
2018-01-10T15:00:57.736Z,65.82
2018-01-10T15:03:26.722Z,66.08
2018-01-10T15:05:52.744Z,66.45
2018-01-10T15:08:19.777Z,66.56
2018-01-10T15:10:45.720Z,66.53
2018-01-10T15:13:15.125Z,65.52
2018-01-10T15:15:41.059Z,66.32
2018-01-10T15:18:10.317Z,66.80
2018-01-10T15:20:36.325Z,66.58
2018-01-10T15:23:05.407Z,67.28
2018-01-10T15:25:31.446Z,67.82
2018-01-10T15:27:57.347Z,67.90
2018-01-10T15:30:23.304Z,67.91
2018-01-10T15:32:49.255Z,68.24
2018-01-10T15:35:16.384Z,68.91
2018-01-10T15:37:42.337Z,69.17
2018-01-10T15:40:11.370Z,69.48
2018-01-10T15:42:37.372Z,69.60
2018-01-10T15:45:06.785Z,69.90
2018-01-10T15:47:32.754Z,69.76
2018-01-10T15:50:00.063Z,69.79
2018-01-10T15:52:26.871Z,69.78
2018-01-10T15:54:56.191Z,70.43
2018-01-10T15:57:22.124Z,70.19
2018-01-10T15:59:49.513Z,70.22
2018-01-10T16:02:15.470Z,69.85
2018-01-10T16:04:41.446Z,70.63
2018-01-10T16:07:07.427Z,69.52
2018-01-10T16:09:33.431Z,69.98
2018-01-10T16:12:01.069Z,69.77
2018-01-10T16:14:27.030Z,68.69
2018-01-10T16:16:56.936Z,69.06
2018-01-10T16:19:22.877Z,68.54
2018-01-10T16:21:50.812Z,68.50
2018-01-10T16:24:16.750Z,68.98
2018-01-10T16:26:45.860Z,69.12
2018-01-10T16:29:11.824Z,70.03
2018-01-10T16:31:39.672Z,70.64
2018-01-10T16:34:05.684Z,71.13
2018-01-10T16:36:34.279Z,71.18
2018-01-10T16:39:00.235Z,70.35
2018-01-10T16:41:26.233Z,69.97
2018-01-10T16:43:52.173Z,69.73
2018-01-10T16:46:18.097Z,70.08
2018-01-10T16:48:47.728Z,69.50
2018-01-10T16:51:14.908Z,69.57
2018-01-10T16:53:40.892Z,69.89
2018-01-10T16:56:06.881Z,70.19
2018-01-10T16:58:36.278Z,70.03
2018-01-10T17:01:02.274Z,70.61
2018-01-10T17:03:31.618Z,70.69
2018-01-10T17:05:57.545Z,70.66
2018-01-10T17:08:26.925Z,69.86
2018-01-10T17:10:52.885Z,70.16
2018-01-10T17:13:19.871Z,70.95
2018-01-10T17:15:45.781Z,70.83
2018-01-10T17:18:11.728Z,70.27
2018-01-10T17:20:37.697Z,69.88
2018-01-10T17:23:03.632Z,69.77
2018-01-10T17:25:31.285Z,69.18
2018-01-10T17:27:57.262Z,68.84
2018-01-10T17:30:27.217Z,67.95
2018-01-10T17:32:53.190Z,67.91
2018-01-10T17:35:20.977Z,67.67
2018-01-10T17:37:46.965Z,66.98
2018-01-10T17:40:16.036Z,66.26
2018-01-10T17:42:41.976Z,66.59
2018-01-10T17:45:11.156Z,67.97
2018-01-10T17:47:37.117Z,68.77
2018-01-10T17:50:06.100Z,67.27
2018-01-10T17:52:32.079Z,67.59
2018-01-10T17:54:58.178Z,67.36
2018-01-10T17:57:24.195Z,67.52
2018-01-10T17:59:50.172Z,67.70
2018-01-10T18:02:17.710Z,67.66
2018-01-10T18:04:43.779Z,67.21
2018-01-10T18:07:11.882Z,65.69
2018-01-10T18:09:37.952Z,65.16
2018-01-10T18:12:07.819Z,65.81
2018-01-10T18:14:34.003Z,66.23
2018-01-10T18:17:01.377Z,65.87
2018-01-10T18:19:27.576Z,65.75
2018-01-10T18:21:56.845Z,66.10
2018-01-10T18:24:23.105Z,66.45
2018-01-10T18:26:51.044Z,66.82
2018-01-10T18:29:17.296Z,67.21
2018-01-10T18:31:43.494Z,67.76
2018-01-10T18:34:09.713Z,67.71
2018-01-10T18:36:35.928Z,67.90
2018-01-10T18:39:02.890Z,68.24
2018-01-10T18:41:29.038Z,67.86
2018-01-10T18:43:57.316Z,69.04
2018-01-10T18:46:23.581Z,69.28
2018-01-10T18:48:52.325Z,69.98
2018-01-10T18:51:18.583Z,69.86
2018-01-10T18:53:48.176Z,69.12
2018-01-10T18:56:14.519Z,68.25
2018-01-10T18:58:41.607Z,68.84
2018-01-10T19:01:07.900Z,68.87
2018-01-10T19:03:37.068Z,67.45
2018-01-10T19:06:03.302Z,67.24
2018-01-10T19:08:29.501Z,67.91
2018-01-10T19:10:55.832Z,67.62
2018-01-10T19:13:22.138Z,67.56
2018-01-10T19:15:48.353Z,66.36
2018-01-10T19:18:14.557Z,66.62
2018-01-10T19:20:42.752Z,66.79
2018-01-10T19:23:08.911Z,65.72
2018-01-10T19:25:36.666Z,65.81
2018-01-10T19:28:02.693Z,65.61
2018-01-10T19:30:31.804Z,65.37
2018-01-10T19:32:57.795Z,66.04
2018-01-10T19:35:26.902Z,66.49
2018-01-10T19:37:52.909Z,66.15
2018-01-10T19:40:23.000Z,66.70
2018-01-10T19:42:49.008Z,67.53
2018-01-10T19:45:15.050Z,67.25
2018-01-10T19:47:40.980Z,67.53
2018-01-10T19:50:06.956Z,67.89
2018-01-10T19:52:32.977Z,68.06
2018-01-10T19:54:58.997Z,68.24
2018-01-10T19:57:27.516Z,68.56
2018-01-10T19:59:53.571Z,68.48
2018-01-10T20:02:22.611Z,69.01
2018-01-10T20:04:48.569Z,68.68
2018-01-10T20:07:17.708Z,68.57
2018-01-10T20:09:43.694Z,68.80
2018-01-10T20:12:12.488Z,68.86
2018-01-10T20:14:38.439Z,69.44
2018-01-10T20:17:07.227Z,69.28
2018-01-10T20:19:33.184Z,69.52
2018-01-10T20:21:59.151Z,70.05
2018-01-10T20:24:25.160Z,70.55
2018-01-10T20:26:51.149Z,70.62
2018-01-10T20:29:18.474Z,70.00
2018-01-10T20:31:44.472Z,69.25
2018-01-10T20:34:14.141Z,68.78
2018-01-10T20:36:40.063Z,69.62
2018-01-10T20:39:09.212Z,70.24
2018-01-10T20:41:35.173Z,70.50
2018-01-10T20:44:02.483Z,70.59
2018-01-10T20:46:28.477Z,69.57
2018-01-10T20:48:57.663Z,68.92
2018-01-10T20:51:23.647Z,69.88
2018-01-10T20:53:51.363Z,70.13
2018-01-10T20:56:17.385Z,68.90
2018-01-10T20:58:43.312Z,69.87
2018-01-10T21:01:09.330Z,70.52
2018-01-10T21:03:35.272Z,70.46
2018-01-10T21:06:03.118Z,70.19
2018-01-10T21:08:29.064Z,70.30
2018-01-10T21:10:57.837Z,70.52
2018-01-10T21:13:23.804Z,70.90
2018-01-10T21:15:52.638Z,70.54
2018-01-10T21:18:18.630Z,70.71
2018-01-10T21:20:49.316Z,70.82
2018-01-10T21:23:15.262Z,70.63
2018-01-10T21:25:42.689Z,69.66
2018-01-10T21:28:08.721Z,69.97
2018-01-10T21:30:37.962Z,70.07
2018-01-10T21:33:03.927Z,70.23
2018-01-10T21:37:55.809Z,70.23
2018-01-10T21:40:21.758Z,70.28
2018-01-10T21:42:49.281Z,69.52
2018-01-10T21:45:15.269Z,69.74
2018-01-10T21:47:44.450Z,70.16
2018-01-10T21:50:10.407Z,69.73
2018-01-10T21:52:39.492Z,70.22
2018-01-10T21:55:05.461Z,69.87
2018-01-10T21:57:34.607Z,69.26
2018-01-10T22:00:00.601Z,69.81
2018-01-10T22:02:27.951Z,70.11
2018-01-10T22:04:53.901Z,70.53
2018-01-10T22:07:23.099Z,70.55
2018-01-10T22:09:49.080Z,70.19
2018-01-10T22:12:15.051Z,70.21
2018-01-10T22:14:41.002Z,70.16
2018-01-10T22:17:06.941Z,70.00
2018-01-10T22:19:34.729Z,69.64
2018-01-10T22:22:00.656Z,70.03
2018-01-10T22:24:28.708Z,70.16
2018-01-10T22:26:54.662Z,70.67
2018-01-10T22:29:23.738Z,71.21
2018-01-10T22:31:49.691Z,71.71
2018-01-10T22:34:18.862Z,72.08
2018-01-10T22:36:44.801Z,72.85
2018-01-10T22:39:12.538Z,73.64
2018-01-10T22:41:38.540Z,74.11
2018-01-10T22:44:07.241Z,73.88
2018-01-10T22:46:33.219Z,73.30
2018-01-10T22:48:59.250Z,73.67
2018-01-10T22:51:25.219Z,73.43
2018-01-10T22:53:51.217Z,73.73
2018-01-10T22:56:21.198Z,73.79
2018-01-10T22:58:47.140Z,74.05
2018-01-10T23:01:14.181Z,74.27
2018-01-10T23:03:40.179Z,74.24
2018-01-10T23:06:09.521Z,74.41
2018-01-10T23:08:35.536Z,74.42
2018-01-10T23:11:03.247Z,74.61
2018-01-10T23:13:29.218Z,74.80
2018-01-10T23:15:59.517Z,74.54
2018-01-10T23:18:25.459Z,74.85
2018-01-10T23:20:52.806Z,75.33
2018-01-10T23:23:18.814Z,75.44
2018-01-10T23:25:44.817Z,75.66
2018-01-10T23:28:10.792Z,75.53
2018-01-10T23:30:36.687Z,75.23
2018-01-10T23:33:04.565Z,75.48
2018-01-10T23:35:30.567Z,75.50
2018-01-10T23:37:59.675Z,75.40
2018-01-10T23:40:25.660Z,75.59
2018-01-10T23:42:54.748Z,76.20
2018-01-10T23:45:20.757Z,76.44
2018-01-10T23:47:50.242Z,76.67
2018-01-10T23:50:16.211Z,76.20
2018-01-10T23:52:45.348Z,75.86
2018-01-10T23:55:11.240Z,77.51
2018-01-10T23:57:38.353Z,78.03
